sensor_id;sensor_type;location;lat;lon;timestamp;temperature;humidity
32664;DHT22;19847;48.670;9.242;2022-09-09T00:00:51;13.60;99.90
32664;DHT22;19847;48.670;9.242;2022-09-09T00:04:17;13.70;99.90
32664;DHT22;19847;48.670;9.242;2022-09-09T00:07:45;13.60;99.90
32664;DHT22;19847;48.670;9.242;2022-09-09T00:11:08;13.70;99.90
32664;DHT22;19847;48.670;9.242;2022-09-09T00:14:34;13.60;99.90
32664;DHT22;19847;48.670;9.242;2022-09-09T00:18:01;13.60;99.90
32664;DHT22;19847;48.670;9.242;2022-09-09T00:21:27;13.50;99.90
32664;DHT22;19847;48.670;9.242;2022-09-09T00:24:52;13.60;99.90
32664;DHT22;19847;48.670;9.242;2022-09-09T00:28:17;13.60;99.90
32664;DHT22;19847;48.670;9.242;2022-09-09T00:31:39;13.60;99.90
32664;DHT22;19847;48.670;9.242;2022-09-09T00:35:02;13.50;99.90
32664;DHT22;19847;48.670;9.242;2022-09-09T00:38:28;13.60;99.90
32664;DHT22;19847;48.670;9.242;2022-09-09T00:41:56;13.70;99.90
32664;DHT22;19847;48.670;9.242;2022-09-09T00:45:26;13.80;99.90
32664;DHT22;19847;48.670;9.242;2022-09-09T00:48:52;13.90;99.90
32664;DHT22;19847;48.670;9.242;2022-09-09T00:52:19;13.90;99.90
32664;DHT22;19847;48.670;9.242;2022-09-09T00:55:45;14.00;99.90
32664;DHT22;19847;48.670;9.242;2022-09-09T00:59:12;14.00;99.90
32664;DHT22;19847;48.670;9.242;2022-09-09T01:02:39;14.00;99.90
32664;DHT22;19847;48.670;9.242;2022-09-09T01:06:02;14.00;99.90
32664;DHT22;19847;48.670;9.242;2022-09-09T01:09:26;14.00;99.90
32664;DHT22;19847;48.670;9.242;2022-09-09T01:12:50;14.00;99.90
32664;DHT22;19847;48.670;9.242;2022-09-09T01:16:13;13.90;99.90
32664;DHT22;19847;48.670;9.242;2022-09-09T01:19:38;13.90;99.90
32664;DHT22;19847;48.670;9.242;2022-09-09T01:23:05;13.90;99.90
32664;DHT22;19847;48.670;9.242;2022-09-09T01:26:35;13.90;99.90
32664;DHT22;19847;48.670;9.242;2022-09-09T01:29:58;13.90;99.90
32664;DHT22;19847;48.670;9.242;2022-09-09T01:33:20;13.80;99.90
32664;DHT22;19847;48.670;9.242;2022-09-09T01:36:42;13.80;99.90
32664;DHT22;19847;48.670;9.242;2022-09-09T01:40:06;13.70;99.90
32664;DHT22;19847;48.670;9.242;2022-09-09T01:43:29;13.60;99.90
32664;DHT22;19847;48.670;9.242;2022-09-09T01:46:51;13.60;99.90
32664;DHT22;19847;48.670;9.242;2022-09-09T01:50:13;13.60;99.90
32664;DHT22;19847;48.670;9.242;2022-09-09T01:53:35;13.60;99.90
32664;DHT22;19847;48.670;9.242;2022-09-09T01:56:59;13.60;99.90
32664;DHT22;19847;48.670;9.242;2022-09-09T02:00:23;13.60;99.90
32664;DHT22;19847;48.670;9.242;2022-09-09T02:03:47;13.50;99.90
32664;DHT22;19847;48.670;9.242;2022-09-09T02:07:16;13.50;99.90
32664;DHT22;19847;48.670;9.242;2022-09-09T02:10:40;13.40;99.90
32664;DHT22;19847;48.670;9.242;2022-09-09T02:14:05;13.40;99.90
32664;DHT22;19847;48.670;9.242;2022-09-09T02:17:29;13.40;99.90
32664;DHT22;19847;48.670;9.242;2022-09-09T02:20:52;13.40;99.90
32664;DHT22;19847;48.670;9.242;2022-09-09T02:24:14;13.40;99.90
32664;DHT22;19847;48.670;9.242;2022-09-09T02:27:36;13.40;99.90
32664;DHT22;19847;48.670;9.242;2022-09-09T02:30:58;13.40;99.90
32664;DHT22;19847;48.670;9.242;2022-09-09T02:34:21;13.40;99.90
32664;DHT22;19847;48.670;9.242;2022-09-09T02:37:44;13.40;99.90
32664;DHT22;19847;48.670;9.242;2022-09-09T02:41:06;13.30;99.90
32664;DHT22;19847;48.670;9.242;2022-09-09T02:44:28;13.30;99.90
32664;DHT22;19847;48.670;9.242;2022-09-09T02:47:50;13.20;99.90
32664;DHT22;19847;48.670;9.242;2022-09-09T02:51:15;13.20;99.90
32664;DHT22;19847;48.670;9.242;2022-09-09T02:54:40;13.20;99.90
32664;DHT22;19847;48.670;9.242;2022-09-09T02:58:01;13.30;99.90
32664;DHT22;19847;48.670;9.242;2022-09-09T03:01:24;13.30;99.90
32664;DHT22;19847;48.670;9.242;2022-09-09T03:04:46;13.30;99.90
32664;DHT22;19847;48.670;9.242;2022-09-09T03:08:09;13.30;99.90
32664;DHT22;19847;48.670;9.242;2022-09-09T03:11:31;13.50;99.90
32664;DHT22;19847;48.670;9.242;2022-09-09T03:14:52;13.60;99.90
32664;DHT22;19847;48.670;9.242;2022-09-09T03:18:14;13.60;99.90
32664;DHT22;19847;48.670;9.242;2022-09-09T03:21:35;13.70;99.90
32664;DHT22;19847;48.670;9.242;2022-09-09T03:24:58;13.70;99.90
32664;DHT22;19847;48.670;9.242;2022-09-09T03:28:20;13.70;99.90
32664;DHT22;19847;48.670;9.242;2022-09-09T03:31:41;13.60;99.90
32664;DHT22;19847;48.670;9.242;2022-09-09T03:35:03;13.50;99.90
32664;DHT22;19847;48.670;9.242;2022-09-09T03:38:25;13.40;99.90
32664;DHT22;19847;48.670;9.242;2022-09-09T03:41:48;13.40;99.90
32664;DHT22;19847;48.670;9.242;2022-09-09T03:45:10;13.40;99.90
32664;DHT22;19847;48.670;9.242;2022-09-09T03:48:31;13.30;99.90
32664;DHT22;19847;48.670;9.242;2022-09-09T03:51:53;13.40;99.90
32664;DHT22;19847;48.670;9.242;2022-09-09T03:55:15;13.40;99.90
32664;DHT22;19847;48.670;9.242;2022-09-09T03:58:38;13.50;99.90
32664;DHT22;19847;48.670;9.242;2022-09-09T04:01:59;13.50;99.90
32664;DHT22;19847;48.670;9.242;2022-09-09T04:05:21;13.50;99.90
32664;DHT22;19847;48.670;9.242;2022-09-09T04:08:43;13.60;99.90
32664;DHT22;19847;48.670;9.242;2022-09-09T04:12:04;13.60;99.90
32664;DHT22;19847;48.670;9.242;2022-09-09T04:15:27;13.60;99.90
32664;DHT22;19847;48.670;9.242;2022-09-09T04:18:51;13.60;99.90
32664;DHT22;19847;48.670;9.242;2022-09-09T04:22:12;13.70;99.90
32664;DHT22;19847;48.670;9.242;2022-09-09T04:25:34;13.60;99.90
32664;DHT22;19847;48.670;9.242;2022-09-09T04:28:55;13.60;99.90
32664;DHT22;19847;48.670;9.242;2022-09-09T04:32:18;13.60;99.90
32664;DHT22;19847;48.670;9.242;2022-09-09T04:35:43;13.60;99.90
32664;DHT22;19847;48.670;9.242;2022-09-09T04:39:05;13.60;99.90
32664;DHT22;19847;48.670;9.242;2022-09-09T04:42:27;13.60;99.90
32664;DHT22;19847;48.670;9.242;2022-09-09T04:45:49;13.70;99.90
32664;DHT22;19847;48.670;9.242;2022-09-09T04:49:12;13.80;99.90
32664;DHT22;19847;48.670;9.242;2022-09-09T04:52:35;13.90;99.90
32664;DHT22;19847;48.670;9.242;2022-09-09T04:56:01;14.00;99.90
32664;DHT22;19847;48.670;9.242;2022-09-09T04:59:22;14.10;99.90
32664;DHT22;19847;48.670;9.242;2022-09-09T05:02:44;14.10;99.90
32664;DHT22;19847;48.670;9.242;2022-09-09T05:06:08;14.10;99.90
32664;DHT22;19847;48.670;9.242;2022-09-09T05:09:29;14.10;99.90
32664;DHT22;19847;48.670;9.242;2022-09-09T05:12:52;14.20;99.90
32664;DHT22;19847;48.670;9.242;2022-09-09T05:16:13;14.20;99.90
32664;DHT22;19847;48.670;9.242;2022-09-09T05:19:35;14.30;99.90
32664;DHT22;19847;48.670;9.242;2022-09-09T05:22:58;14.30;99.90
32664;DHT22;19847;48.670;9.242;2022-09-09T05:26:21;14.40;99.90
32664;DHT22;19847;48.670;9.242;2022-09-09T05:29:42;14.60;99.90
32664;DHT22;19847;48.670;9.242;2022-09-09T05:33:04;14.70;99.90
32664;DHT22;19847;48.670;9.242;2022-09-09T05:36:26;14.90;99.90
32664;DHT22;19847;48.670;9.242;2022-09-09T05:39:49;15.10;99.90
32664;DHT22;19847;48.670;9.242;2022-09-09T05:43:10;15.30;99.90
32664;DHT22;19847;48.670;9.242;2022-09-09T05:46:32;15.60;99.90
32664;DHT22;19847;48.670;9.242;2022-09-09T05:49:54;15.90;99.90
32664;DHT22;19847;48.670;9.242;2022-09-09T05:53:15;16.20;99.90
32664;DHT22;19847;48.670;9.242;2022-09-09T05:56:38;16.60;99.90
32664;DHT22;19847;48.670;9.242;2022-09-09T06:00:00;16.70;99.90
32664;DHT22;19847;48.670;9.242;2022-09-09T06:03:22;16.50;99.90
32664;DHT22;19847;48.670;9.242;2022-09-09T06:06:44;16.40;99.90
32664;DHT22;19847;48.670;9.242;2022-09-09T06:10:06;16.20;99.90
32664;DHT22;19847;48.670;9.242;2022-09-09T06:13:29;16.10;99.90
32664;DHT22;19847;48.670;9.242;2022-09-09T06:16:50;16.20;99.90
32664;DHT22;19847;48.670;9.242;2022-09-09T06:20:12;16.20;99.90
32664;DHT22;19847;48.670;9.242;2022-09-09T06:23:34;16.20;99.90
32664;DHT22;19847;48.670;9.242;2022-09-09T06:26:55;16.30;99.90
32664;DHT22;19847;48.670;9.242;2022-09-09T06:30:18;16.50;99.90
32664;DHT22;19847;48.670;9.242;2022-09-09T06:33:40;16.70;99.90
32664;DHT22;19847;48.670;9.242;2022-09-09T06:37:02;16.90;99.90
32664;DHT22;19847;48.670;9.242;2022-09-09T06:40:24;17.00;99.90
32664;DHT22;19847;48.670;9.242;2022-09-09T06:43:46;17.10;99.90
32664;DHT22;19847;48.670;9.242;2022-09-09T06:47:09;17.10;99.90
32664;DHT22;19847;48.670;9.242;2022-09-09T06:50:30;17.20;99.90
32664;DHT22;19847;48.670;9.242;2022-09-09T06:53:53;17.40;99.90
32664;DHT22;19847;48.670;9.242;2022-09-09T06:57:15;17.60;99.90
32664;DHT22;19847;48.670;9.242;2022-09-09T07:01:03;18.00;99.90
32664;DHT22;19847;48.670;9.242;2022-09-09T07:04:26;18.30;99.90
32664;DHT22;19847;48.670;9.242;2022-09-09T07:07:48;19.60;99.90
32664;DHT22;19847;48.670;9.242;2022-09-09T07:11:09;20.10;99.90
32664;DHT22;19847;48.670;9.242;2022-09-09T07:14:33;20.90;99.90
32664;DHT22;19847;48.670;9.242;2022-09-09T07:17:54;20.80;99.90
32664;DHT22;19847;48.670;9.242;2022-09-09T07:21:17;21.20;99.90
32664;DHT22;19847;48.670;9.242;2022-09-09T07:24:39;21.10;99.90
32664;DHT22;19847;48.670;9.242;2022-09-09T07:28:00;20.80;99.90
32664;DHT22;19847;48.670;9.242;2022-09-09T07:31:23;20.50;99.90
32664;DHT22;19847;48.670;9.242;2022-09-09T07:34:45;20.60;99.90
32664;DHT22;19847;48.670;9.242;2022-09-09T07:38:07;20.70;99.90
32664;DHT22;19847;48.670;9.242;2022-09-09T07:41:31;20.90;99.90
32664;DHT22;19847;48.670;9.242;2022-09-09T07:44:53;20.40;99.90
32664;DHT22;19847;48.670;9.242;2022-09-09T07:48:14;20.20;99.90
32664;DHT22;19847;48.670;9.242;2022-09-09T07:51:37;19.90;99.90
32664;DHT22;19847;48.670;9.242;2022-09-09T07:55:00;20.40;99.90
32664;DHT22;19847;48.670;9.242;2022-09-09T07:58:22;21.00;99.90
32664;DHT22;19847;48.670;9.242;2022-09-09T08:01:44;21.80;99.90
32664;DHT22;19847;48.670;9.242;2022-09-09T08:05:06;21.30;99.90
32664;DHT22;19847;48.670;9.242;2022-09-09T08:08:28;22.00;99.90
32664;DHT22;19847;48.670;9.242;2022-09-09T08:11:51;21.90;99.90
32664;DHT22;19847;48.670;9.242;2022-09-09T08:15:13;22.00;99.90
32664;DHT22;19847;48.670;9.242;2022-09-09T08:18:35;23.10;99.90
32664;DHT22;19847;48.670;9.242;2022-09-09T08:21:56;23.50;99.90
32664;DHT22;19847;48.670;9.242;2022-09-09T08:25:18;23.70;99.90
32664;DHT22;19847;48.670;9.242;2022-09-09T08:28:41;24.00;99.90
32664;DHT22;19847;48.670;9.242;2022-09-09T08:32:03;23.30;99.90
32664;DHT22;19847;48.670;9.242;2022-09-09T08:35:24;24.60;99.90
32664;DHT22;19847;48.670;9.242;2022-09-09T08:38:47;25.80;99.90
32664;DHT22;19847;48.670;9.242;2022-09-09T08:42:12;26.40;99.90
32664;DHT22;19847;48.670;9.242;2022-09-09T08:45:41;27.10;99.90
32664;DHT22;19847;48.670;9.242;2022-09-09T08:49:13;26.80;99.90
32664;DHT22;19847;48.670;9.242;2022-09-09T08:52:39;26.80;99.90
32664;DHT22;19847;48.670;9.242;2022-09-09T08:56:07;27.80;99.90
32664;DHT22;19847;48.670;9.242;2022-09-09T08:59:30;27.10;98.30
32664;DHT22;19847;48.670;9.242;2022-09-09T09:02:56;25.30;99.90
32664;DHT22;19847;48.670;9.242;2022-09-09T09:06:24;24.30;99.90
32664;DHT22;19847;48.670;9.242;2022-09-09T09:09:50;23.30;99.90
32664;DHT22;19847;48.670;9.242;2022-09-09T09:13:17;22.90;99.90
32664;DHT22;19847;48.670;9.242;2022-09-09T09:16:41;24.50;99.90
32664;DHT22;19847;48.670;9.242;2022-09-09T09:20:11;25.60;99.90
32664;DHT22;19847;48.670;9.242;2022-09-09T09:23:37;26.90;99.90
32664;DHT22;19847;48.670;9.242;2022-09-09T09:27:00;26.90;98.40
32664;DHT22;19847;48.670;9.242;2022-09-09T09:30:29;27.90;97.60
32664;DHT22;19847;48.670;9.242;2022-09-09T09:33:51;27.80;96.50
32664;DHT22;19847;48.670;9.242;2022-09-09T09:37:15;27.80;95.40
32664;DHT22;19847;48.670;9.242;2022-09-09T09:40:47;26.90;88.80
32664;DHT22;19847;48.670;9.242;2022-09-09T09:44:20;25.30;88.90
32664;DHT22;19847;48.670;9.242;2022-09-09T09:47:43;23.60;90.90
32664;DHT22;19847;48.670;9.242;2022-09-09T09:51:05;23.00;93.90
32664;DHT22;19847;48.670;9.242;2022-09-09T09:54:31;22.30;93.90
32664;DHT22;19847;48.670;9.242;2022-09-09T09:57:54;22.50;95.90
32664;DHT22;19847;48.670;9.242;2022-09-09T10:01:22;23.20;94.40
32664;DHT22;19847;48.670;9.242;2022-09-09T10:04:44;22.50;95.00
32664;DHT22;19847;48.670;9.242;2022-09-09T10:08:10;22.20;96.50
32664;DHT22;19847;48.670;9.242;2022-09-09T10:11:38;21.90;98.10
32664;DHT22;19847;48.670;9.242;2022-09-09T10:15:02;21.80;96.30
32664;DHT22;19847;48.670;9.242;2022-09-09T10:18:34;22.70;97.20
32664;DHT22;19847;48.670;9.242;2022-09-09T10:22:02;24.10;95.80
32664;DHT22;19847;48.670;9.242;2022-09-09T10:25:31;25.40;95.10
32664;DHT22;19847;48.670;9.242;2022-09-09T10:29:13;26.10;95.60
32664;DHT22;19847;48.670;9.242;2022-09-09T10:32:37;26.00;97.00
32664;DHT22;19847;48.670;9.242;2022-09-09T10:36:04;26.00;96.10
32664;DHT22;19847;48.670;9.242;2022-09-09T10:39:32;25.60;95.70
32664;DHT22;19847;48.670;9.242;2022-09-09T10:43:02;24.90;95.30
32664;DHT22;19847;48.670;9.242;2022-09-09T10:46:28;24.50;96.60
32664;DHT22;19847;48.670;9.242;2022-09-09T10:50:03;24.30;95.90
32664;DHT22;19847;48.670;9.242;2022-09-09T10:53:36;24.30;96.20
32664;DHT22;19847;48.670;9.242;2022-09-09T10:57:00;24.50;93.30
32664;DHT22;19847;48.670;9.242;2022-09-09T11:00:24;24.50;92.60
32664;DHT22;19847;48.670;9.242;2022-09-09T11:03:52;24.40;94.30
32664;DHT22;19847;48.670;9.242;2022-09-09T11:07:18;23.90;93.50
32664;DHT22;19847;48.670;9.242;2022-09-09T11:10:44;23.60;94.80
32664;DHT22;19847;48.670;9.242;2022-09-09T11:14:09;23.50;94.40
32664;DHT22;19847;48.670;9.242;2022-09-09T11:17:33;23.20;95.30
32664;DHT22;19847;48.670;9.242;2022-09-09T11:20:58;22.70;95.40
32664;DHT22;19847;48.670;9.242;2022-09-09T11:24:21;21.40;99.90
32664;DHT22;19847;48.670;9.242;2022-09-09T11:27:51;19.90;99.90
32664;DHT22;19847;48.670;9.242;2022-09-09T11:31:20;19.20;99.90
32664;DHT22;19847;48.670;9.242;2022-09-09T11:34:46;18.80;99.90
32664;DHT22;19847;48.670;9.242;2022-09-09T11:41:52;18.30;99.90
32664;DHT22;19847;48.670;9.242;2022-09-09T11:45:21;18.40;99.90
32664;DHT22;19847;48.670;9.242;2022-09-09T11:48:43;18.60;99.90
32664;DHT22;19847;48.670;9.242;2022-09-09T11:52:10;19.00;99.90
32664;DHT22;19847;48.670;9.242;2022-09-09T11:55:32;19.30;99.90
32664;DHT22;19847;48.670;9.242;2022-09-09T11:58:56;19.60;99.90
32664;DHT22;19847;48.670;9.242;2022-09-09T12:02:19;19.60;99.90
32664;DHT22;19847;48.670;9.242;2022-09-09T12:05:44;19.70;99.90
32664;DHT22;19847;48.670;9.242;2022-09-09T12:09:06;19.80;99.90
32664;DHT22;19847;48.670;9.242;2022-09-09T12:12:30;19.90;99.90
32664;DHT22;19847;48.670;9.242;2022-09-09T12:15:54;20.10;99.90
32664;DHT22;19847;48.670;9.242;2022-09-09T12:19:19;20.40;99.90
32664;DHT22;19847;48.670;9.242;2022-09-09T12:22:53;20.80;99.90
32664;DHT22;19847;48.670;9.242;2022-09-09T12:26:23;21.20;99.90
32664;DHT22;19847;48.670;9.242;2022-09-09T12:33:52;21.50;99.90
32664;DHT22;19847;48.670;9.242;2022-09-09T12:38:04;21.40;99.90
32664;DHT22;19847;48.670;9.242;2022-09-09T12:54:16;20.90;99.90
32664;DHT22;19847;48.670;9.242;2022-09-09T12:57:53;21.10;99.90
32664;DHT22;19847;48.670;9.242;2022-09-09T13:01:46;21.20;99.90
32664;DHT22;19847;48.670;9.242;2022-09-09T13:05:37;21.20;99.90
32664;DHT22;19847;48.670;9.242;2022-09-09T13:09:08;21.40;99.90
32664;DHT22;19847;48.670;9.242;2022-09-09T13:12:40;21.60;99.90
32664;DHT22;19847;48.670;9.242;2022-09-09T13:16:18;21.60;99.90
32664;DHT22;19847;48.670;9.242;2022-09-09T13:28:21;21.60;99.40
32664;DHT22;19847;48.670;9.242;2022-09-09T13:35:28;22.00;99.40
32664;DHT22;19847;48.670;9.242;2022-09-09T13:51:04;22.10;99.90
32664;DHT22;19847;48.670;9.242;2022-09-09T13:54:32;21.90;99.90
32664;DHT22;19847;48.670;9.242;2022-09-09T13:57:55;21.90;99.90
32664;DHT22;19847;48.670;9.242;2022-09-09T14:01:17;22.00;99.00
32664;DHT22;19847;48.670;9.242;2022-09-09T14:04:40;21.90;97.90
32664;DHT22;19847;48.670;9.242;2022-09-09T14:08:03;21.90;98.50
32664;DHT22;19847;48.670;9.242;2022-09-09T14:11:25;21.90;98.10
32664;DHT22;19847;48.670;9.242;2022-09-09T14:14:48;22.00;97.60
32664;DHT22;19847;48.670;9.242;2022-09-09T14:18:11;21.90;97.20
32664;DHT22;19847;48.670;9.242;2022-09-09T14:21:34;22.00;97.00
32664;DHT22;19847;48.670;9.242;2022-09-09T14:24:56;21.90;97.00
32664;DHT22;19847;48.670;9.242;2022-09-09T14:28:18;21.70;97.40
32664;DHT22;19847;48.670;9.242;2022-09-09T14:31:59;21.90;98.70
32664;DHT22;19847;48.670;9.242;2022-09-09T14:35:21;22.20;97.20
32664;DHT22;19847;48.670;9.242;2022-09-09T14:38:44;22.50;96.40
32664;DHT22;19847;48.670;9.242;2022-09-09T14:42:06;22.50;96.50
32664;DHT22;19847;48.670;9.242;2022-09-09T14:45:28;22.60;95.10
32664;DHT22;19847;48.670;9.242;2022-09-09T14:48:50;22.70;94.30
32664;DHT22;19847;48.670;9.242;2022-09-09T14:52:12;22.70;95.40
32664;DHT22;19847;48.670;9.242;2022-09-09T14:55:36;22.60;94.40
32664;DHT22;19847;48.670;9.242;2022-09-09T14:59:00;22.40;93.60
32664;DHT22;19847;48.670;9.242;2022-09-09T15:02:22;22.20;94.20
32664;DHT22;19847;48.670;9.242;2022-09-09T15:05:43;22.20;93.50
32664;DHT22;19847;48.670;9.242;2022-09-09T15:09:05;22.10;93.00
32664;DHT22;19847;48.670;9.242;2022-09-09T15:12:29;22.10;94.00
32664;DHT22;19847;48.670;9.242;2022-09-09T15:15:51;22.00;93.90
32664;DHT22;19847;48.670;9.242;2022-09-09T15:19:13;22.00;93.90
32664;DHT22;19847;48.670;9.242;2022-09-09T15:22:35;22.00;94.10
32664;DHT22;19847;48.670;9.242;2022-09-09T15:25:56;22.10;94.00
32664;DHT22;19847;48.670;9.242;2022-09-09T15:29:20;22.00;93.90
32664;DHT22;19847;48.670;9.242;2022-09-09T15:32:41;22.00;94.40
32664;DHT22;19847;48.670;9.242;2022-09-09T15:36:14;22.30;94.10
32664;DHT22;19847;48.670;9.242;2022-09-09T15:39:36;22.50;94.30
32664;DHT22;19847;48.670;9.242;2022-09-09T15:42:59;22.50;94.80
32664;DHT22;19847;48.670;9.242;2022-09-09T15:46:23;22.50;94.00
32664;DHT22;19847;48.670;9.242;2022-09-09T15:49:45;22.20;92.90
32664;DHT22;19847;48.670;9.242;2022-09-09T15:53:07;21.90;94.10
32664;DHT22;19847;48.670;9.242;2022-09-09T15:56:29;21.60;95.00
32664;DHT22;19847;48.670;9.242;2022-09-09T15:59:51;21.40;94.30
32664;DHT22;19847;48.670;9.242;2022-09-09T16:03:14;21.20;95.40
32664;DHT22;19847;48.670;9.242;2022-09-09T16:06:36;21.00;95.30
32664;DHT22;19847;48.670;9.242;2022-09-09T16:09:58;20.80;95.70
32664;DHT22;19847;48.670;9.242;2022-09-09T16:13:20;20.70;95.60
32664;DHT22;19847;48.670;9.242;2022-09-09T16:16:41;20.60;95.60
32664;DHT22;19847;48.670;9.242;2022-09-09T16:20:05;20.40;95.20
32664;DHT22;19847;48.670;9.242;2022-09-09T16:23:27;20.40;95.10
32664;DHT22;19847;48.670;9.242;2022-09-09T16:26:50;20.30;95.50
32664;DHT22;19847;48.670;9.242;2022-09-09T16:30:12;20.30;95.10
32664;DHT22;19847;48.670;9.242;2022-09-09T16:33:34;20.20;95.50
32664;DHT22;19847;48.670;9.242;2022-09-09T16:36:57;20.20;95.80
32664;DHT22;19847;48.670;9.242;2022-09-09T16:40:19;20.20;96.00
32664;DHT22;19847;48.670;9.242;2022-09-09T16:43:41;20.10;96.00
32664;DHT22;19847;48.670;9.242;2022-09-09T16:47:02;20.20;96.30
32664;DHT22;19847;48.670;9.242;2022-09-09T16:50:24;20.10;96.70
32664;DHT22;19847;48.670;9.242;2022-09-09T16:53:47;20.00;96.80
32664;DHT22;19847;48.670;9.242;2022-09-09T16:57:09;20.00;97.00
32664;DHT22;19847;48.670;9.242;2022-09-09T17:00:31;19.90;97.80
32664;DHT22;19847;48.670;9.242;2022-09-09T17:03:53;19.80;97.50
32664;DHT22;19847;48.670;9.242;2022-09-09T17:07:21;19.70;98.10
32664;DHT22;19847;48.670;9.242;2022-09-09T17:10:44;19.60;97.80
32664;DHT22;19847;48.670;9.242;2022-09-09T17:14:06;19.50;98.20
32664;DHT22;19847;48.670;9.242;2022-09-09T17:17:28;19.30;99.20
32664;DHT22;19847;48.670;9.242;2022-09-09T17:20:52;19.10;99.40
32664;DHT22;19847;48.670;9.242;2022-09-09T17:24:14;19.00;99.90
32664;DHT22;19847;48.670;9.242;2022-09-09T17:27:37;18.90;99.90
32664;DHT22;19847;48.670;9.242;2022-09-09T17:30:59;18.80;99.90
32664;DHT22;19847;48.670;9.242;2022-09-09T17:34:21;18.60;99.90
32664;DHT22;19847;48.670;9.242;2022-09-09T17:37:43;18.50;99.90
32664;DHT22;19847;48.670;9.242;2022-09-09T17:41:05;18.40;99.90
32664;DHT22;19847;48.670;9.242;2022-09-09T17:44:30;18.30;99.90
32664;DHT22;19847;48.670;9.242;2022-09-09T17:47:54;18.20;99.90
32664;DHT22;19847;48.670;9.242;2022-09-09T17:51:16;18.10;99.90
32664;DHT22;19847;48.670;9.242;2022-09-09T17:54:38;18.00;99.90
32664;DHT22;19847;48.670;9.242;2022-09-09T17:58:00;17.90;99.90
32664;DHT22;19847;48.670;9.242;2022-09-09T18:01:23;17.80;99.90
32664;DHT22;19847;48.670;9.242;2022-09-09T18:04:45;17.70;99.90
32664;DHT22;19847;48.670;9.242;2022-09-09T18:08:09;17.60;99.90
32664;DHT22;19847;48.670;9.242;2022-09-09T18:11:32;17.50;99.90
32664;DHT22;19847;48.670;9.242;2022-09-09T18:14:54;17.40;99.90
32664;DHT22;19847;48.670;9.242;2022-09-09T18:18:17;17.20;99.90
32664;DHT22;19847;48.670;9.242;2022-09-09T18:21:39;17.10;99.90
32664;DHT22;19847;48.670;9.242;2022-09-09T18:25:02;17.10;99.90
32664;DHT22;19847;48.670;9.242;2022-09-09T18:28:25;17.00;99.90
32664;DHT22;19847;48.670;9.242;2022-09-09T18:31:46;17.10;99.90
32664;DHT22;19847;48.670;9.242;2022-09-09T18:35:10;17.10;99.90
32664;DHT22;19847;48.670;9.242;2022-09-09T18:38:31;17.10;99.90
32664;DHT22;19847;48.670;9.242;2022-09-09T18:41:54;17.10;99.90
32664;DHT22;19847;48.670;9.242;2022-09-09T18:45:15;17.10;99.90
32664;DHT22;19847;48.670;9.242;2022-09-09T18:48:37;17.00;99.90
32664;DHT22;19847;48.670;9.242;2022-09-09T18:52:01;17.00;99.90
32664;DHT22;19847;48.670;9.242;2022-09-09T18:55:23;17.00;99.90
32664;DHT22;19847;48.670;9.242;2022-09-09T18:58:44;17.10;99.90
32664;DHT22;19847;48.670;9.242;2022-09-09T19:02:06;17.10;99.90
32664;DHT22;19847;48.670;9.242;2022-09-09T19:05:28;17.10;99.90
32664;DHT22;19847;48.670;9.242;2022-09-09T19:08:52;17.10;99.90
32664;DHT22;19847;48.670;9.242;2022-09-09T19:12:18;17.10;99.90
32664;DHT22;19847;48.670;9.242;2022-09-09T19:15:39;17.10;99.90
32664;DHT22;19847;48.670;9.242;2022-09-09T19:19:03;17.10;99.90
32664;DHT22;19847;48.670;9.242;2022-09-09T19:22:26;17.10;99.90
32664;DHT22;19847;48.670;9.242;2022-09-09T19:25:50;17.00;99.90
32664;DHT22;19847;48.670;9.242;2022-09-09T19:29:12;17.00;99.90
32664;DHT22;19847;48.670;9.242;2022-09-09T19:32:34;16.90;99.90
32664;DHT22;19847;48.670;9.242;2022-09-09T19:36:14;16.80;99.90
32664;DHT22;19847;48.670;9.242;2022-09-09T19:39:36;16.70;99.90
32664;DHT22;19847;48.670;9.242;2022-09-09T19:42:59;16.60;99.90
32664;DHT22;19847;48.670;9.242;2022-09-09T19:46:21;16.50;99.90
32664;DHT22;19847;48.670;9.242;2022-09-09T19:49:42;16.50;99.90
32664;DHT22;19847;48.670;9.242;2022-09-09T19:53:08;16.50;99.90
32664;DHT22;19847;48.670;9.242;2022-09-09T19:56:30;16.40;99.90
32664;DHT22;19847;48.670;9.242;2022-09-09T19:59:53;16.50;99.90
32664;DHT22;19847;48.670;9.242;2022-09-09T20:03:15;16.40;99.90
32664;DHT22;19847;48.670;9.242;2022-09-09T20:06:41;16.30;99.90
32664;DHT22;19847;48.670;9.242;2022-09-09T20:10:03;16.20;99.90
32664;DHT22;19847;48.670;9.242;2022-09-09T20:13:25;16.10;99.90
32664;DHT22;19847;48.670;9.242;2022-09-09T20:16:48;16.00;99.90
32664;DHT22;19847;48.670;9.242;2022-09-09T20:20:12;16.00;99.90
32664;DHT22;19847;48.670;9.242;2022-09-09T20:23:34;16.00;99.90
32664;DHT22;19847;48.670;9.242;2022-09-09T20:26:56;15.90;99.90
32664;DHT22;19847;48.670;9.242;2022-09-09T20:30:18;15.90;99.90
32664;DHT22;19847;48.670;9.242;2022-09-09T20:33:42;15.90;99.90
32664;DHT22;19847;48.670;9.242;2022-09-09T20:37:04;15.90;99.90
32664;DHT22;19847;48.670;9.242;2022-09-09T20:40:25;15.80;99.90
32664;DHT22;19847;48.670;9.242;2022-09-09T20:43:54;15.80;99.90
32664;DHT22;19847;48.670;9.242;2022-09-09T20:47:16;15.80;99.90
32664;DHT22;19847;48.670;9.242;2022-09-09T20:50:39;15.80;99.90
32664;DHT22;19847;48.670;9.242;2022-09-09T20:54:01;15.80;99.90
32664;DHT22;19847;48.670;9.242;2022-09-09T20:57:26;15.90;99.90
32664;DHT22;19847;48.670;9.242;2022-09-09T21:00:48;15.90;99.90
32664;DHT22;19847;48.670;9.242;2022-09-09T21:04:17;15.90;99.90
32664;DHT22;19847;48.670;9.242;2022-09-09T21:07:40;15.80;99.90
32664;DHT22;19847;48.670;9.242;2022-09-09T21:11:03;15.70;99.90
32664;DHT22;19847;48.670;9.242;2022-09-09T21:14:24;15.60;99.90
32664;DHT22;19847;48.670;9.242;2022-09-09T21:17:46;15.50;99.90
32664;DHT22;19847;48.670;9.242;2022-09-09T21:21:08;15.40;99.90
32664;DHT22;19847;48.670;9.242;2022-09-09T21:24:31;15.20;99.90
32664;DHT22;19847;48.670;9.242;2022-09-09T21:27:53;15.10;99.90
32664;DHT22;19847;48.670;9.242;2022-09-09T21:31:15;15.00;99.90
32664;DHT22;19847;48.670;9.242;2022-09-09T21:34:38;14.90;99.90
32664;DHT22;19847;48.670;9.242;2022-09-09T21:37:59;14.80;99.90
32664;DHT22;19847;48.670;9.242;2022-09-09T21:41:23;14.70;99.90
32664;DHT22;19847;48.670;9.242;2022-09-09T21:44:45;14.70;99.90
32664;DHT22;19847;48.670;9.242;2022-09-09T21:48:07;14.60;99.90
32664;DHT22;19847;48.670;9.242;2022-09-09T21:51:29;14.60;99.90
32664;DHT22;19847;48.670;9.242;2022-09-09T21:54:51;14.50;99.90
32664;DHT22;19847;48.670;9.242;2022-09-09T21:58:14;14.40;99.90
32664;DHT22;19847;48.670;9.242;2022-09-09T22:01:36;14.40;99.90
32664;DHT22;19847;48.670;9.242;2022-09-09T22:04:58;14.40;99.90
32664;DHT22;19847;48.670;9.242;2022-09-09T22:08:20;14.50;99.90
32664;DHT22;19847;48.670;9.242;2022-09-09T22:11:42;14.50;99.90